Time;durP1;ratioP1;P1;durP2;ratioP2;P2;SDS_P1;SDS_P2;PMS_P1;PMS_P2;Temp;Humidity;BMP_temperature;BMP_pressure;BME280_temperature;BME280_humidity;BME280_pressure;Samples;Min_cycle;Max_cycle;Signal;HPM_P1;HPM_P2
2023/06/22 00:02:26;;;;;;;2.17;1.97;;;;;;;23.97;48.15;97557.13;4994369;28;20219;-29
2023/06/22 00:04:52;;;;;;;2.20;1.93;;;;;;;23.97;48.06;97552.88;4997635;28;20254;-28
2023/06/22 00:07:19;;;;;;;2.27;1.80;;;;;;;23.97;47.92;97547.75;4991114;28;20743;-28
2023/06/22 00:09:45;;;;;;;2.40;1.90;;;;;;;23.98;48.47;97540.91;4996860;28;20199;-27
2023/06/22 00:12:12;;;;;;;2.23;1.90;;;;;;;23.97;48.08;97541.72;4999012;28;20269;-28
2023/06/22 00:14:39;;;;;;;1.90;1.60;;;;;;;23.98;48.10;97551.19;4993847;28;20195;-29
2023/06/22 00:17:05;;;;;;;1.97;1.80;;;;;;;23.98;48.27;97546.06;4991446;28;20211;-29
2023/06/22 00:19:35;;;;;;;2.90;2.07;;;;;;;23.97;48.07;97546.88;4995728;28;20563;-27
2023/06/22 00:22:03;;;;;;;2.00;1.73;;;;;;;23.91;48.19;97528.75;4995984;28;20227;-28
2023/06/22 00:24:30;;;;;;;1.97;1.77;;;;;;;23.96;48.26;97535.75;4996421;28;20245;-27
2023/06/22 00:26:56;;;;;;;2.00;1.80;;;;;;;23.96;47.93;97534.88;5001418;28;20214;-28
2023/06/22 00:29:23;;;;;;;2.00;1.70;;;;;;;23.95;48.11;97536.56;4991627;28;20205;-28
2023/06/22 00:31:51;;;;;;;1.73;1.63;;;;;;;23.97;47.93;97552.00;4987116;28;20228;-29
2023/06/22 00:34:18;;;;;;;2.10;1.73;;;;;;;23.97;47.87;97542.59;4991902;28;20557;-27
2023/06/22 00:36:44;;;;;;;1.67;1.57;;;;;;;23.98;47.97;97538.34;4992371;28;20214;-28
2023/06/22 00:39:11;;;;;;;2.30;1.90;;;;;;;23.95;48.16;97533.13;4997100;28;20199;-28
2023/06/22 00:41:38;;;;;;;2.53;1.80;;;;;;;23.97;48.12;97537.47;4997585;28;20219;-33
2023/06/22 00:44:06;;;;;;;2.03;1.70;;;;;;;23.97;47.96;97526.31;4998852;28;20207;-27
2023/06/22 00:46:33;;;;;;;2.80;1.90;;;;;;;23.94;48.18;97513.41;4987036;28;20263;-28
2023/06/22 00:49:00;;;;;;;1.70;1.60;;;;;;;23.96;48.35;97516.91;4987765;28;20277;-27
2023/06/22 00:51:27;;;;;;;2.07;1.87;;;;;;;23.96;47.79;97522.91;4995742;28;20235;-28
2023/06/22 00:53:53;;;;;;;1.90;1.80;;;;;;;23.96;48.42;97534.88;4993288;28;20353;-28
2023/06/22 00:56:24;;;;;;;2.63;1.97;;;;;;;23.96;48.04;97538.31;5003331;28;20216;-29
2023/06/22 00:58:52;;;;;;;2.27;1.90;;;;;;;23.91;48.34;97521.03;4994240;28;20290;-28
2023/06/22 01:01:23;;;;;;;1.90;1.60;;;;;;;23.96;48.23;97533.19;4995995;28;20250;-28
2023/06/22 01:03:50;;;;;;;2.57;1.90;;;;;;;23.96;48.35;97528.06;4997823;28;20195;-28
2023/06/22 01:06:24;;;;;;;1.90;1.80;;;;;;;23.93;48.42;97511.69;4989392;28;20218;-28
2023/06/22 01:09:09;;;;;;;2.27;1.90;;;;;;;23.94;48.11;97526.22;4993440;28;20627;-27
2023/06/22 01:11:38;;;;;;;1.93;1.80;;;;;;;23.95;48.26;97526.28;4991893;28;20226;-27
2023/06/22 01:14:22;;;;;;;1.70;1.60;;;;;;;23.96;48.16;97530.63;4997832;28;20206;-28
2023/06/22 01:16:49;;;;;;;1.67;1.57;;;;;;;23.96;48.47;97528.06;4988683;28;20555;-30
2023/06/22 01:19:37;;;;;;;2.03;1.73;;;;;;;23.95;48.33;97528.88;4979649;28;20689;-28
2023/06/22 01:22:05;;;;;;;1.83;1.70;;;;;;;23.96;48.35;97540.88;4993431;28;20238;-28
2023/06/22 01:24:31;;;;;;;1.70;1.60;;;;;;;23.95;48.49;97536.56;5001797;28;20196;-29
2023/06/22 01:27:05;;;;;;;2.10;1.90;;;;;;;23.96;48.42;97545.13;4993462;28;20257;-27
2023/06/22 01:29:31;;;;;;;1.97;1.60;;;;;;;23.96;48.41;97546.03;4997926;28;20203;-28
2023/06/22 01:31:58;;;;;;;2.17;1.90;;;;;;;23.96;48.17;97534.88;5002018;28;20223;-29
2023/06/22 01:34:24;;;;;;;1.93;1.77;;;;;;;23.97;48.43;97531.47;5010014;28;20203;-28
2023/06/22 01:36:51;;;;;;;1.67;1.57;;;;;;;23.96;48.16;97533.19;4984976;28;20246;-28
2023/06/22 01:39:18;;;;;;;1.73;1.60;;;;;;;23.96;48.23;97532.31;5010715;28;20660;-28
2023/06/22 01:41:45;;;;;;;3.70;1.80;;;;;;;23.95;48.11;97535.69;5004186;28;20223;-33
2023/06/22 01:44:12;;;;;;;2.10;1.90;;;;;;;23.95;48.21;97543.38;4991533;28;20685;-28
2023/06/22 01:46:38;;;;;;;1.80;1.53;;;;;;;23.94;48.22;97545.06;5008755;28;20222;-28
2023/06/22 01:49:05;;;;;;;1.93;1.70;;;;;;;23.96;48.03;97545.13;4979916;28;20575;-29
2023/06/22 01:51:32;;;;;;;1.70;1.60;;;;;;;23.95;48.48;97551.09;5009983;28;20226;-28
2023/06/22 01:53:58;;;;;;;1.70;1.60;;;;;;;23.97;48.31;97557.13;4983529;28;20219;-28
2023/06/22 01:56:25;;;;;;;1.70;1.60;;;;;;;23.97;48.26;97563.16;4990067;28;20199;-29
2023/06/22 01:59:30;;;;;;;2.20;1.70;;;;;;;23.97;48.18;97563.16;4989689;28;20203;-28
2023/06/22 02:02:02;;;;;;;1.93;1.80;;;;;;;23.96;48.17;97561.44;5008799;28;20218;-28
2023/06/22 02:04:34;;;;;;;1.83;1.73;;;;;;;23.96;48.37;97565.69;4994254;28;20203;-28
2023/06/22 02:07:01;;;;;;;1.70;1.60;;;;;;;23.96;48.19;97561.44;4989557;28;20203;-27
2023/06/22 02:09:29;;;;;;;1.60;1.50;;;;;;;23.94;48.45;97557.03;4992182;28;20207;-29
2023/06/22 02:11:55;;;;;;;1.87;1.77;;;;;;;23.93;48.39;97545.94;4968874;28;20462;-28
2023/06/22 02:14:23;;;;;;;1.70;1.60;;;;;;;23.93;48.31;97547.63;4983926;28;20258;-29
2023/06/22 02:16:51;;;;;;;1.63;1.53;;;;;;;23.95;48.46;97545.97;4986275;28;20547;-28
2023/06/22 02:19:18;;;;;;;1.63;1.53;;;;;;;23.95;48.30;97545.97;4994130;28;20207;-29
2023/06/22 02:21:45;;;;;;;1.60;1.50;;;;;;;23.95;48.48;97530.56;4987088;28;20629;-29
2023/06/22 02:24:12;;;;;;;1.97;1.77;;;;;;;23.93;48.26;97533.09;4987723;28;20200;-29
2023/06/22 02:26:39;;;;;;;1.70;1.60;;;;;;;23.94;48.39;97536.50;4996396;28;20203;-28
2023/06/22 02:29:06;;;;;;;1.90;1.80;;;;;;;23.94;48.61;97534.81;4989166;28;20669;-28
2023/06/22 02:31:32;;;;;;;1.80;1.70;;;;;;;23.94;48.48;97524.53;4990785;28;20274;-29
2023/06/22 02:33:59;;;;;;;1.93;1.60;;;;;;;23.93;48.75;97527.97;4988175;28;20230;-29
2023/06/22 02:36:27;;;;;;;1.57;1.47;;;;;;;23.95;48.68;97525.41;4989613;28;20222;-30
2023/06/22 02:38:56;;;;;;;1.60;1.50;;;;;;;23.94;48.60;97519.41;4984431;28;20258;-29
2023/06/22 02:41:22;;;;;;;1.67;1.57;;;;;;;23.94;48.59;97516.84;4990553;28;20230;-28
2023/06/22 02:43:49;;;;;;;1.87;1.63;;;;;;;23.94;48.71;97514.28;4994916;28;20257;-28
2023/06/22 02:46:16;;;;;;;2.10;1.70;;;;;;;23.92;48.62;97509.97;4987157;28;20211;-29
2023/06/22 02:48:42;;;;;;;1.40;1.30;;;;;;;23.94;48.46;97519.41;4983911;28;20203;-28
2023/06/22 02:51:12;;;;;;;1.77;1.60;;;;;;;23.94;48.59;97521.97;4987160;28;20231;-27
2023/06/22 02:53:39;;;;;;;1.60;1.50;;;;;;;23.94;48.40;97516.84;4982652;28;20414;-27
2023/06/22 02:56:05;;;;;;;1.50;1.40;;;;;;;23.95;48.59;97528.88;4982436;28;20199;-27
2023/06/22 02:58:38;;;;;;;1.50;1.40;;;;;;;23.94;48.57;97529.69;4994382;28;20222;-29
2023/06/22 03:01:05;;;;;;;1.60;1.50;;;;;;;23.93;48.26;97525.38;4983208;28;20203;-28
2023/06/22 03:03:32;;;;;;;1.70;1.60;;;;;;;23.93;48.09;97530.53;4983851;28;20202;-27
2023/06/22 03:06:01;;;;;;;1.87;1.60;;;;;;;23.92;48.30;97531.34;4989494;28;20195;-27
2023/06/22 03:08:28;;;;;;;2.67;2.00;;;;;;;23.93;48.66;97529.66;4983633;28;20253;-28
2023/06/22 03:10:55;;;;;;;1.50;1.40;;;;;;;23.93;48.47;97530.53;4994923;28;20206;-28
2023/06/22 03:13:22;;;;;;;1.57;1.47;;;;;;;23.94;48.51;97529.69;4985870;28;20235;-27
2023/06/22 03:15:49;;;;;;;1.60;1.50;;;;;;;23.94;48.47;97521.09;4983138;28;20200;-29
2023/06/22 03:18:15;;;;;;;1.80;1.70;;;;;;;23.96;48.59;97527.16;4981244;28;20245;-27
2023/06/22 03:20:42;;;;;;;1.70;1.60;;;;;;;23.94;48.68;97526.22;4991206;28;20290;-28
2023/06/22 03:23:09;;;;;;;1.50;1.40;;;;;;;23.90;48.36;97507.38;4991365;28;20597;-30
2023/06/22 03:25:35;;;;;;;2.13;1.60;;;;;;;23.94;48.62;97526.22;4984641;28;20207;-29
2023/06/22 03:28:02;;;;;;;1.70;1.60;;;;;;;23.95;48.49;97523.72;4988774;28;20203;-28
2023/06/22 03:30:28;;;;;;;1.73;1.63;;;;;;;23.93;48.41;97520.25;4987940;28;20562;-27
2023/06/22 03:32:55;;;;;;;1.77;1.60;;;;;;;23.93;48.54;97524.50;4994058;28;20311;-35
2023/06/22 03:35:24;;;;;;;1.60;1.50;;;;;;;23.93;48.77;97525.38;4987541;28;20207;-27
2023/06/22 03:37:51;;;;;;;1.60;1.50;;;;;;;23.93;48.43;97525.38;4988846;28;20203;-28
2023/06/22 03:40:17;;;;;;;1.50;1.40;;;;;;;23.93;48.45;97521.94;4999298;28;20222;-28
2023/06/22 03:42:44;;;;;;;1.60;1.50;;;;;;;23.90;48.60;97521.88;5003686;28;20709;-28
2023/06/22 03:45:11;;;;;;;1.73;1.63;;;;;;;23.92;48.47;97526.19;4999068;28;20202;-29
2023/06/22 03:47:37;;;;;;;2.53;1.60;;;;;;;23.92;48.72;97518.50;4997095;28;20257;-29
2023/06/22 03:50:05;;;;;;;1.77;1.40;;;;;;;23.92;48.80;97523.63;4992747;28;20269;-27
2023/06/22 03:52:32;;;;;;;1.60;1.50;;;;;;;23.92;48.68;97521.06;4994652;28;20685;-28
2023/06/22 03:54:59;;;;;;;1.87;1.77;;;;;;;23.93;48.64;97534.78;4989827;28;20210;-28
2023/06/22 03:57:25;;;;;;;2.13;1.90;;;;;;;23.94;48.62;97531.38;5002888;28;20199;-28
2023/06/22 03:59:55;;;;;;;1.80;1.53;;;;;;;23.93;48.77;97532.22;4993894;28;20202;-27
2023/06/22 04:02:22;;;;;;;1.80;1.60;;;;;;;23.92;48.83;97533.06;4999316;28;20596;-27
2023/06/22 04:04:49;;;;;;;1.50;1.40;;;;;;;23.93;48.60;97539.91;4988103;28;20495;-27
2023/06/22 04:07:15;;;;;;;2.00;1.90;;;;;;;23.91;48.83;97537.31;4999495;28;20615;-31
2023/06/22 04:09:42;;;;;;;1.80;1.70;;;;;;;23.92;48.86;97554.44;4999826;28;20302;-28
2023/06/22 04:12:09;;;;;;;1.80;1.70;;;;;;;23.92;48.96;97549.31;5000650;28;20222;-28
2023/06/22 04:14:35;;;;;;;1.87;1.70;;;;;;;23.92;48.97;97539.03;4995955;28;20361;-30
2023/06/22 04:17:02;;;;;;;1.97;1.77;;;;;;;23.94;49.08;97539.06;4996988;28;20250;-29
2023/06/22 04:19:28;;;;;;;1.80;1.70;;;;;;;23.92;48.84;97543.31;4996931;28;20274;-28
2023/06/22 04:21:55;;;;;;;1.90;1.80;;;;;;;23.92;48.73;97543.31;4993187;28;20250;-27
2023/06/22 04:24:21;;;;;;;1.80;1.70;;;;;;;23.92;48.85;97543.31;4995045;28;20199;-27
2023/06/22 04:26:48;;;;;;;2.17;1.97;;;;;;;23.92;48.64;97544.16;4997762;28;20207;-35
2023/06/22 04:29:15;;;;;;;2.10;1.90;;;;;;;23.87;48.95;97524.38;4998018;28;20661;-28
2023/06/22 04:31:41;;;;;;;2.57;2.03;;;;;;;23.92;49.16;97533.06;4993793;28;20278;-28
2023/06/22 04:34:08;;;;;;;2.13;1.93;;;;;;;23.93;49.34;97535.66;4997579;28;20198;-29
2023/06/22 04:36:37;;;;;;;2.83;1.80;;;;;;;23.93;49.19;97532.22;4997701;28;20286;-28
2023/06/22 04:39:09;;;;;;;1.90;1.80;;;;;;;23.93;49.01;97538.22;5000655;28;20205;-28
2023/06/22 04:41:42;;;;;;;2.20;2.10;;;;;;;23.93;49.03;97545.94;4996388;28;20231;-28
2023/06/22 04:44:12;;;;;;;2.10;1.90;;;;;;;23.94;49.07;97533.94;4979825;28;20538;-28
2023/06/22 04:46:39;;;;;;;1.80;1.70;;;;;;;23.92;48.86;97544.16;4997837;28;20207;-28
2023/06/22 04:49:09;;;;;;;2.93;2.27;;;;;;;23.94;48.82;97541.63;4991787;28;20211;-30
2023/06/22 04:51:40;;;;;;;2.83;2.10;;;;;;;23.93;48.77;97539.91;4985976;28;20609;-28
2023/06/22 04:54:07;;;;;;;2.00;1.80;;;;;;;23.93;48.87;97543.34;4981169;28;20227;-30
2023/06/22 04:56:34;;;;;;;2.37;1.90;;;;;;;23.93;48.87;97538.22;4996179;28;20280;-29
2023/06/22 04:59:01;;;;;;;2.40;1.80;;;;;;;23.92;48.70;97535.63;4985315;28;20234;-28
2023/06/22 05:01:27;;;;;;;2.17;1.80;;;;;;;23.93;48.71;97530.53;4981941;28;20253;-28
2023/06/22 05:03:55;;;;;;;2.47;2.00;;;;;;;23.94;49.06;97533.94;4984483;28;20285;-29
2023/06/22 05:06:24;;;;;;;1.70;1.60;;;;;;;23.94;49.14;97528.81;4983922;28;20273;-31
2023/06/22 05:08:58;;;;;;;2.07;1.87;;;;;;;23.93;48.78;97534.78;4999047;28;20214;-32
2023/06/22 05:11:26;;;;;;;2.10;2.00;;;;;;;23.94;48.87;97539.94;4983360;28;20227;-29
2023/06/22 05:13:52;;;;;;;2.23;2.03;;;;;;;23.70;49.00;97489.81;4984415;28;20223;-31
2023/06/22 05:16:24;;;;;;;2.20;2.00;;;;;;;23.92;48.87;97521.06;4985372;28;20632;-28
2023/06/22 05:18:54;;;;;;;1.90;1.80;;;;;;;23.94;49.19;97515.97;4981865;28;20592;-28
2023/06/22 05:21:26;;;;;;;2.40;2.00;;;;;;;23.94;49.09;97514.28;4983766;28;20235;-29
2023/06/22 05:23:53;;;;;;;2.00;1.90;;;;;;;23.95;48.97;97515.16;4983489;28;20878;-28
2023/06/22 05:26:20;;;;;;;2.00;1.80;;;;;;;23.93;48.96;97504.84;4983615;28;20235;-28
2023/06/22 05:28:46;;;;;;;1.70;1.60;;;;;;;23.94;48.89;97521.97;4983757;28;20211;-27
2023/06/22 05:31:31;;;;;;;1.90;1.80;;;;;;;23.95;49.08;97507.44;4980200;28;20241;-31
2023/06/22 05:33:59;;;;;;;1.80;1.70;;;;;;;23.94;48.89;97511.72;4984792;28;20230;-27
2023/06/22 05:36:44;;;;;;;7.27;1.70;;;;;;;23.94;49.02;97515.97;4987326;28;20574;-28
2023/06/22 05:39:14;;;;;;;2.40;1.77;;;;;;;23.94;48.79;97519.41;4987101;28;20199;-27
2023/06/22 05:41:40;;;;;;;2.00;1.70;;;;;;;23.94;48.77;97511.72;4989693;28;20251;-28
2023/06/22 05:44:07;;;;;;;1.80;1.70;;;;;;;23.94;49.03;97514.28;4991969;28;20750;-28
2023/06/22 05:46:33;;;;;;;2.30;1.97;;;;;;;23.96;49.14;97506.63;4991754;28;20257;-29
2023/06/22 05:49:00;;;;;;;2.00;1.80;;;;;;;23.95;49.03;97495.50;4990181;28;20207;-29
2023/06/22 05:51:27;;;;;;;1.73;1.63;;;;;;;23.96;48.84;97497.25;4990642;28;20224;-28
2023/06/22 05:53:53;;;;;;;1.83;1.73;;;;;;;23.96;48.93;97492.09;4996814;28;20261;-28
2023/06/22 05:56:20;;;;;;;1.93;1.83;;;;;;;23.96;49.20;97492.09;5001209;28;20205;-29
2023/06/22 05:58:46;;;;;;;2.23;1.90;;;;;;;23.96;49.12;97484.41;4995393;28;20200;-28
2023/06/22 06:01:15;;;;;;;1.83;1.70;;;;;;;23.96;49.06;97496.38;4997810;28;20246;-28
2023/06/22 06:03:42;;;;;;;2.10;1.83;;;;;;;23.95;49.08;97481.78;4994786;28;20195;-27
2023/06/22 06:06:10;;;;;;;2.43;1.77;;;;;;;23.95;49.03;97486.91;4994637;28;20762;-28
2023/06/22 06:08:38;;;;;;;2.37;1.70;;;;;;;23.95;49.13;97490.34;4993940;28;20199;-28
2023/06/22 06:11:04;;;;;;;2.00;1.90;;;;;;;23.93;49.02;97488.56;4991121;28;20621;-28
2023/06/22 06:13:31;;;;;;;1.67;1.57;;;;;;;23.94;48.84;97491.16;4993561;28;20277;-27
2023/06/22 06:15:59;;;;;;;1.80;1.70;;;;;;;23.96;49.01;97497.25;4996113;28;20273;-27
2023/06/22 06:18:25;;;;;;;1.90;1.80;;;;;;;23.95;48.87;97498.06;4994151;28;20238;-31
2023/06/22 06:20:52;;;;;;;1.90;1.80;;;;;;;23.94;48.93;97488.59;4985802;28;20596;-28
2023/06/22 06:23:18;;;;;;;2.03;1.83;;;;;;;23.95;48.84;97487.78;4991402;28;20219;-28
2023/06/22 06:25:45;;;;;;;1.80;1.70;;;;;;;23.95;49.06;97490.34;4993582;28;20206;-27
2023/06/22 06:28:11;;;;;;;2.17;1.93;;;;;;;23.95;49.02;97485.22;4993677;28;20207;-28
2023/06/22 06:30:38;;;;;;;1.80;1.70;;;;;;;23.96;48.87;97486.97;4993868;28;20218;-30
2023/06/22 06:33:08;;;;;;;2.10;1.90;;;;;;;23.95;48.91;97480.09;4988580;28;20230;-30
2023/06/22 06:35:35;;;;;;;2.03;1.70;;;;;;;23.96;48.96;97476.72;4988908;28;20211;-28
2023/06/22 06:38:02;;;;;;;1.80;1.70;;;;;;;23.95;49.01;97472.38;4990190;28;20207;-30
2023/06/22 06:40:29;;;;;;;2.60;1.73;;;;;;;23.95;49.24;97466.38;4993781;28;20992;-29
2023/06/22 06:42:56;;;;;;;2.07;1.90;;;;;;;23.74;49.22;97425.75;4995742;28;20223;-29
2023/06/22 06:45:23;;;;;;;1.80;1.70;;;;;;;23.97;49.07;97464.72;4995654;28;20265;-29
2023/06/22 06:47:50;;;;;;;1.80;1.70;;;;;;;23.92;49.11;97445.78;4992541;28;20227;-27
2023/06/22 06:50:17;;;;;;;2.20;1.60;;;;;;;23.95;49.21;97459.56;4984052;28;20204;-31
2023/06/22 06:52:44;;;;;;;2.23;2.03;;;;;;;23.94;49.14;97460.38;4992875;28;20343;-28
2023/06/22 06:55:11;;;;;;;1.90;1.80;;;;;;;23.94;48.79;97459.50;4991192;28;20254;-27
2023/06/22 06:57:38;;;;;;;2.10;1.90;;;;;;;23.93;48.93;97463.78;4990894;28;20242;-29
2023/06/22 07:00:09;;;;;;;1.90;1.80;;;;;;;23.94;49.50;97464.63;4994185;28;20207;-34
2023/06/22 07:02:37;;;;;;;2.17;1.97;;;;;;;23.95;49.30;97448.41;4991900;28;20223;-28
2023/06/22 07:05:04;;;;;;;4.63;1.97;;;;;;;23.95;49.31;97448.41;5008296;28;20218;-28
2023/06/22 07:07:31;;;;;;;2.00;1.90;;;;;;;23.95;48.98;97445.84;4994801;28;20207;-28
2023/06/22 07:09:57;;;;;;;2.37;1.80;;;;;;;23.95;49.11;97446.72;4993617;28;20269;-28
2023/06/22 07:12:24;;;;;;;2.17;1.97;;;;;;;23.96;49.46;97450.16;4992623;28;20222;-35
2023/06/22 07:14:52;;;;;;;1.93;1.83;;;;;;;23.94;48.96;97444.09;4991536;28;20202;-28
2023/06/22 07:17:18;;;;;;;1.90;1.70;;;;;;;23.94;48.91;97441.53;4990028;28;20206;-31
2023/06/22 07:19:45;;;;;;;2.03;1.83;;;;;;;23.94;49.29;97446.66;4992307;28;20203;-29
2023/06/22 07:22:11;;;;;;;2.03;1.83;;;;;;;23.93;49.01;97444.94;5008454;23;20218;-26
2023/06/22 07:24:38;;;;;;;1.80;1.70;;;;;;;23.53;49.01;97371.47;5009990;28;20234;-26
2023/06/22 07:27:06;;;;;;;1.80;1.70;;;;;;;23.93;49.16;97435.53;5010596;28;20264;-26
2023/06/22 07:29:33;;;;;;;1.70;1.60;;;;;;;23.93;48.91;97425.28;5009820;28;20631;-26
2023/06/22 07:32:00;;;;;;;1.80;1.70;;;;;;;23.92;49.00;97426.09;5014837;28;20615;-26
2023/06/22 07:34:27;;;;;;;2.37;1.80;;;;;;;23.92;49.27;97420.97;4991156;28;20233;-26
2023/06/22 07:36:53;;;;;;;2.20;1.93;;;;;;;23.92;49.29;97414.97;4989893;28;20230;-26
2023/06/22 07:39:25;;;;;;;1.80;1.70;;;;;;;23.92;49.11;97420.97;4991302;28;20206;-26
2023/06/22 07:41:52;;;;;;;1.80;1.70;;;;;;;23.91;48.95;97406.41;4991415;28;20230;-26
2023/06/22 07:44:19;;;;;;;1.87;1.70;;;;;;;23.92;49.22;97397.84;4990670;28;20206;-26
2023/06/22 07:46:45;;;;;;;2.00;1.80;;;;;;;23.92;48.88;97399.59;4993380;28;20266;-26
2023/06/22 07:49:12;;;;;;;2.10;1.83;;;;;;;23.93;49.04;97399.59;4995551;28;20210;-26
2023/06/22 07:51:38;;;;;;;2.00;1.80;;;;;;;23.92;48.94;97395.28;4993550;28;20591;-26
2023/06/22 07:54:05;;;;;;;2.13;1.93;;;;;;;23.94;48.79;97397.88;4989793;28;20227;-26
2023/06/22 07:56:33;;;;;;;1.80;1.70;;;;;;;23.46;49.12;97313.19;4992460;28;20210;-26
2023/06/22 07:59:00;;;;;;;2.30;2.10;;;;;;;23.93;49.17;97402.19;4990286;28;20210;-26
2023/06/22 08:01:27;;;;;;;1.80;1.70;;;;;;;23.93;49.00;97397.03;4994781;28;20202;-26
2023/06/22 08:03:54;;;;;;;1.93;1.73;;;;;;;23.92;49.00;97400.44;4997885;28;20215;-27
2023/06/22 08:06:21;;;;;;;2.00;1.80;;;;;;;23.93;49.15;97402.19;4988759;28;20209;-26
2023/06/22 08:08:48;;;;;;;1.60;1.50;;;;;;;23.92;48.85;97403.00;4994355;28;20628;-26
2023/06/22 08:11:15;;;;;;;1.70;1.60;;;;;;;23.92;49.03;97407.28;4998178;28;20276;-26
2023/06/22 08:13:41;;;;;;;2.20;1.70;;;;;;;23.92;49.14;97408.13;4990950;28;20258;-26
2023/06/22 08:16:08;;;;;;;1.70;1.60;;;;;;;23.92;48.85;97400.44;4990879;28;20716;-29
2023/06/22 08:18:35;;;;;;;2.20;1.93;;;;;;;23.92;49.11;97404.72;4991179;28;20242;-27
2023/06/22 08:21:01;;;;;;;1.70;1.60;;;;;;;23.90;49.23;97404.69;4988401;28;20202;-26
2023/06/22 08:23:31;;;;;;;2.07;1.83;;;;;;;23.59;48.82;97340.78;4990828;28;20717;-26
2023/06/22 08:25:57;;;;;;;1.70;1.60;;;;;;;23.90;49.11;97401.25;4987635;28;20234;-27
2023/06/22 08:28:24;;;;;;;3.00;1.70;;;;;;;23.90;48.83;97397.00;4990451;28;20206;-26
2023/06/22 08:30:51;;;;;;;2.83;1.60;;;;;;;23.90;49.01;97394.41;4991810;28;20234;-26
2023/06/22 08:33:17;;;;;;;2.00;1.80;;;;;;;23.91;48.92;97392.69;4993360;28;20277;-27
2023/06/22 08:35:54;;;;;;;2.10;1.90;;;;;;;23.91;48.92;97388.44;4991816;28;20226;-31
2023/06/22 08:38:21;;;;;;;1.80;1.70;;;;;;;23.91;48.84;97393.56;4987440;28;20203;-26
2023/06/22 08:40:47;;;;;;;2.17;1.90;;;;;;;23.91;49.46;97388.44;4991482;28;20235;-26
2023/06/22 08:43:14;;;;;;;3.23;1.63;;;;;;;23.92;49.33;97392.72;4991577;28;20909;-26
2023/06/22 08:45:41;;;;;;;1.70;1.60;;;;;;;23.91;49.20;97398.69;4998029;28;20233;-26
2023/06/22 08:48:09;;;;;;;1.87;1.67;;;;;;;23.92;49.09;97402.16;4996877;28;20202;-27
2023/06/22 08:50:36;;;;;;;1.80;1.70;;;;;;;23.91;49.36;97401.28;4994765;28;20241;-27
2023/06/22 08:53:02;;;;;;;1.80;1.70;;;;;;;23.91;49.47;97398.69;4999733;28;20249;-26
2023/06/22 08:55:29;;;;;;;2.17;1.70;;;;;;;23.91;49.16;97398.69;4992084;28;20206;-35
2023/06/22 08:57:56;;;;;;;1.70;1.60;;;;;;;23.91;49.33;97382.44;4990577;28;20261;-27
2023/06/22 09:00:23;;;;;;;1.90;1.80;;;;;;;23.91;49.06;97388.44;4983758;28;20269;-26
2023/06/22 09:02:49;;;;;;;1.77;1.67;;;;;;;23.90;49.35;97388.41;4995376;28;20230;-26
2023/06/22 09:05:17;;;;;;;2.40;2.00;;;;;;;23.92;48.77;97392.72;4992836;28;21236;-27
2023/06/22 09:07:44;;;;;;;1.80;1.70;;;;;;;23.92;49.00;97384.19;4998364;28;20298;-26
2023/06/22 09:10:10;;;;;;;1.70;1.60;;;;;;;23.91;49.33;97383.31;4994732;28;20221;-26
2023/06/22 09:12:37;;;;;;;1.70;1.60;;;;;;;23.90;49.06;97379.03;4990359;28;20231;-26
2023/06/22 09:15:06;;;;;;;1.60;1.50;;;;;;;23.91;48.86;97372.16;4991031;28;20258;-26
2023/06/22 09:17:36;;;;;;;1.93;1.70;;;;;;;23.92;49.03;97376.47;4992266;28;20788;-26
2023/06/22 09:20:05;;;;;;;1.70;1.60;;;;;;;23.91;49.26;97379.84;4991334;28;20234;-26
2023/06/22 09:22:34;;;;;;;2.07;1.87;;;;;;;23.91;49.21;97370.47;4989335;28;20226;-26
2023/06/22 09:25:01;;;;;;;1.70;1.60;;;;;;;23.93;49.08;97376.50;4988930;28;20286;-26
2023/06/22 09:27:28;;;;;;;1.87;1.70;;;;;;;23.93;48.82;97371.38;4992625;28;20211;-26
2023/06/22 09:29:54;;;;;;;1.70;1.60;;;;;;;23.94;48.94;97375.66;4996208;28;20210;-27
2023/06/22 09:32:21;;;;;;;1.60;1.50;;;;;;;23.94;49.07;97364.50;4989051;28;20242;-27
2023/06/22 09:34:47;;;;;;;1.70;1.60;;;;;;;23.95;49.17;97358.56;4991984;28;20227;-26
2023/06/22 09:37:14;;;;;;;1.93;1.60;;;;;;;23.93;48.90;97358.53;4993361;28;20421;-27
2023/06/22 09:39:41;;;;;;;2.00;1.80;;;;;;;23.95;49.21;97367.13;4990528;28;20210;-26
2023/06/22 09:42:07;;;;;;;1.70;1.60;;;;;;;23.94;49.13;97350.00;4986919;28;20277;-27
2023/06/22 09:44:34;;;;;;;1.83;1.73;;;;;;;23.95;49.18;97356.00;4992270;28;20211;-26
2023/06/22 09:47:01;;;;;;;1.80;1.70;;;;;;;23.94;48.94;97336.28;4989192;28;20199;-26
2023/06/22 09:49:28;;;;;;;1.60;1.50;;;;;;;23.95;49.19;97332.91;4989528;28;20651;-26
2023/06/22 09:52:13;;;;;;;1.80;1.70;;;;;;;23.95;49.01;97335.47;4991610;28;20280;-28
2023/06/22 09:54:40;;;;;;;1.60;1.50;;;;;;;23.95;49.34;97322.63;4984580;28;20231;-26
2023/06/22 09:57:06;;;;;;;1.70;1.60;;;;;;;23.95;49.23;97333.78;4991292;28;20211;-26
2023/06/22 09:59:33;;;;;;;1.60;1.50;;;;;;;23.96;49.09;97340.66;4986993;28;20697;-26
2023/06/22 10:02:00;;;;;;;1.70;1.60;;;;;;;23.95;49.27;97333.78;4987437;28;20214;-26
2023/06/22 10:04:27;;;;;;;1.70;1.60;;;;;;;23.95;49.57;97333.78;4992607;28;20203;-26
2023/06/22 10:06:54;;;;;;;1.93;1.73;;;;;;;23.97;50.35;97331.22;4989064;28;20242;-26
2023/06/22 10:09:21;;;;;;;2.30;2.10;;;;;;;23.99;51.47;97330.44;4995835;28;20206;-26
2023/06/22 10:11:48;;;;;;;2.30;2.10;;;;;;;23.99;51.10;97332.13;4994382;28;20299;-26
2023/06/22 10:14:14;;;;;;;2.23;2.00;;;;;;;23.99;50.87;97333.00;4990656;28;20223;-26
2023/06/22 10:16:41;;;;;;;2.20;1.80;;;;;;;24.00;50.70;97331.28;4994046;28;20266;-26
2023/06/22 10:19:08;;;;;;;2.67;1.80;;;;;;;24.00;50.60;97329.59;4992357;28;20290;-26
2023/06/22 10:21:34;;;;;;;3.20;2.00;;;;;;;24.00;50.53;97324.44;4988999;28;20215;-26
2023/06/22 10:24:08;;;;;;;2.30;1.90;;;;;;;24.00;50.24;97315.88;4993600;28;20231;-31
2023/06/22 10:26:35;;;;;;;2.40;2.00;;;;;;;23.99;49.88;97319.28;4990191;28;20413;-26
2023/06/22 10:29:02;;;;;;;1.90;1.80;;;;;;;23.98;50.14;97315.84;4989669;28;20207;-26
2023/06/22 10:31:42;;;;;;;2.80;1.90;;;;;;;23.97;50.02;97311.56;4995484;28;20206;-26
2023/06/22 10:34:09;;;;;;;2.20;1.90;;;;;;;23.98;50.74;97308.16;4988629;28;20234;-26
2023/06/22 10:36:36;;;;;;;2.10;1.83;;;;;;;23.96;50.72;97308.97;4991324;28;20234;-26
2023/06/22 10:39:02;;;;;;;2.80;2.07;;;;;;;23.98;50.45;97312.44;4989230;28;20203;-33
2023/06/22 10:41:30;;;;;;;2.20;1.97;;;;;;;23.97;50.20;97301.31;4989420;28;20408;-26
2023/06/22 10:43:57;;;;;;;2.20;2.00;;;;;;;23.97;50.15;97313.25;4993420;28;20219;-26
2023/06/22 10:46:25;;;;;;;2.60;1.93;;;;;;;23.98;50.04;97312.44;4980518;28;20210;-27
2023/06/22 10:48:54;;;;;;;2.03;1.73;;;;;;;23.98;49.97;97308.16;4992985;28;20199;-26
2023/06/22 10:51:21;;;;;;;2.53;1.80;;;;;;;23.97;49.91;97306.44;4993369;28;20203;-26
2023/06/22 10:53:47;;;;;;;2.77;2.10;;;;;;;23.98;49.90;97302.19;4993251;28;20395;-26
2023/06/22 10:56:14;;;;;;;1.93;1.80;;;;;;;23.97;50.15;97295.28;4988650;28;20211;-26
2023/06/22 10:58:40;;;;;;;2.23;2.03;;;;;;;23.97;50.13;97297.84;4990912;28;20207;-27
2023/06/22 11:01:07;;;;;;;2.17;1.97;;;;;;;23.96;49.86;97297.00;4988640;28;20626;-26
2023/06/22 11:03:42;;;;;;;2.10;1.90;;;;;;;23.96;49.92;97286.75;4987039;28;20266;-26
2023/06/22 11:06:09;;;;;;;2.67;1.60;;;;;;;23.97;49.92;97293.59;4990851;28;20214;-26
2023/06/22 11:08:36;;;;;;;2.00;1.90;;;;;;;23.97;49.70;97291.03;4989276;28;20253;-26
2023/06/22 11:11:02;;;;;;;1.97;1.70;;;;;;;23.99;49.94;97293.63;4988233;28;20199;-31
2023/06/22 11:13:29;;;;;;;2.30;2.10;;;;;;;23.97;49.75;97291.03;4987456;28;20329;-26
2023/06/22 11:15:55;;;;;;;2.17;1.70;;;;;;;24.00;49.81;97290.22;4994014;28;20230;-27
2023/06/22 11:18:23;;;;;;;3.87;1.80;;;;;;;24.00;49.85;97290.22;4988352;28;20703;-26
2023/06/22 11:20:49;;;;;;;1.83;1.70;;;;;;;24.00;49.84;97288.50;4989063;28;20217;-26
2023/06/22 11:23:19;;;;;;;1.83;1.73;;;;;;;24.00;49.61;97285.06;4991024;28;20257;-26
2023/06/22 11:25:46;;;;;;;1.80;1.70;;;;;;;23.99;49.79;97279.09;4993085;28;20242;-26
2023/06/22 11:28:13;;;;;;;1.80;1.70;;;;;;;23.99;49.55;97281.66;4988108;28;20690;-26
2023/06/22 11:30:39;;;;;;;1.90;1.80;;;;;;;24.01;49.73;97268.84;4987320;28;20207;-26
2023/06/22 11:33:06;;;;;;;3.17;1.80;;;;;;;24.01;49.46;97273.97;4997673;28;20774;-26
2023/06/22 11:35:32;;;;;;;1.90;1.80;;;;;;;24.01;49.71;97273.97;4987980;28;20326;-29
2023/06/22 11:37:59;;;;;;;1.60;1.50;;;;;;;24.01;49.70;97272.25;4992277;28;20241;-27